createdAt,value
2022-12-16T00:00:38.118Z,74.27
2022-12-16T00:03:04.781Z,74.29
2022-12-16T00:05:31.356Z,73.88
2022-12-16T00:07:57.869Z,74.18
2022-12-16T00:10:24.329Z,74.33
2022-12-16T00:12:50.824Z,74.09
2022-12-16T00:15:18.569Z,74.12
2022-12-16T00:17:45.050Z,74.76
2022-12-16T00:20:11.731Z,74.74
2022-12-16T00:22:38.202Z,74.65
2022-12-16T00:25:05.378Z,74.79
2022-12-16T00:27:31.845Z,75.24
2022-12-16T00:29:58.327Z,74.84
2022-12-16T00:32:24.832Z,74.84
2022-12-16T00:34:51.287Z,74.60
2022-12-16T00:37:18.288Z,74.60
2022-12-16T00:39:44.752Z,74.92
2022-12-16T00:42:11.282Z,74.54
2022-12-16T00:44:37.749Z,74.59
2022-12-16T00:47:04.228Z,74.72
2022-12-16T00:49:30.707Z,74.56
2022-12-16T00:51:57.219Z,74.71
2022-12-16T00:54:26.748Z,74.72
2022-12-16T00:56:53.301Z,74.79
2022-12-16T00:59:20.333Z,74.65
2022-12-16T01:01:47.022Z,74.98
2022-12-16T01:04:13.668Z,74.92
2022-12-16T01:06:40.147Z,74.82
2022-12-16T01:09:06.628Z,74.87
2022-12-16T01:11:33.125Z,74.67
2022-12-16T01:13:59.718Z,74.90
2022-12-16T01:16:26.245Z,74.96
2022-12-16T01:18:55.348Z,75.43
2022-12-16T01:21:21.972Z,75.23
2022-12-16T01:23:48.483Z,75.18
2022-12-16T01:26:16.596Z,75.40
2022-12-16T01:28:43.133Z,74.93
2022-12-16T01:31:09.609Z,75.33
2022-12-16T01:33:38.744Z,75.18
2022-12-16T01:36:06.159Z,75.78
2022-12-16T01:38:32.828Z,75.60
2022-12-16T01:40:59.437Z,75.64
2022-12-16T01:43:27.559Z,75.19
2022-12-16T01:45:55.133Z,75.23
2022-12-16T01:48:27.553Z,75.17
2022-12-16T01:50:54.809Z,75.64
2022-12-16T01:53:21.314Z,75.10
2022-12-16T01:55:48.721Z,75.03
2022-12-16T01:58:22.571Z,74.87
2022-12-16T02:00:49.072Z,75.18
2022-12-16T02:03:15.722Z,75.34
2022-12-16T02:05:42.645Z,75.35
2022-12-16T02:08:09.032Z,75.52
2022-12-16T02:10:38.477Z,75.37
2022-12-16T02:13:13.011Z,75.22
2022-12-16T02:15:41.911Z,75.25
2022-12-16T02:18:15.680Z,75.64
2022-12-16T02:21:06.208Z,75.53
2022-12-16T02:23:32.976Z,75.07
2022-12-16T02:26:11.811Z,75.38
2022-12-16T02:28:57.170Z,74.93
2022-12-16T02:31:29.715Z,75.18
2022-12-16T02:34:07.206Z,75.45
2022-12-16T02:37:12.262Z,75.45
2022-12-16T02:39:39.555Z,75.40
2022-12-16T02:42:07.512Z,75.17
2022-12-16T02:44:43.785Z,74.93
2022-12-16T02:47:10.265Z,75.05
2022-12-16T02:49:36.702Z,74.92
2022-12-16T02:52:03.183Z,74.85
2022-12-16T02:54:29.821Z,75.19
2022-12-16T02:57:07.005Z,75.44
2022-12-16T02:59:40.225Z,75.22
2022-12-16T03:02:06.842Z,75.04
2022-12-16T03:04:45.907Z,74.87
2022-12-16T03:07:13.532Z,75.07
2022-12-16T03:09:39.992Z,75.33
2022-12-16T03:12:08.277Z,75.15
2022-12-16T03:14:34.777Z,74.54
2022-12-16T03:17:01.447Z,74.85
2022-12-16T03:19:27.921Z,75.00
2022-12-16T03:22:06.649Z,75.24
2022-12-16T03:24:33.112Z,75.32
2022-12-16T03:27:18.658Z,75.28
2022-12-16T03:29:47.091Z,75.25
2022-12-16T03:32:15.490Z,75.11
2022-12-16T03:34:43.465Z,75.01
2022-12-16T03:37:10.295Z,74.90
2022-12-16T03:39:41.878Z,74.81
2022-12-16T03:42:09.157Z,75.15
2022-12-16T03:44:35.893Z,75.11
2022-12-16T03:47:02.438Z,75.21
2022-12-16T03:49:28.894Z,75.06
2022-12-16T03:51:55.412Z,75.02
2022-12-16T03:54:21.946Z,75.27
2022-12-16T03:56:48.415Z,75.63
2022-12-16T03:59:14.898Z,75.48
2022-12-16T04:01:41.522Z,76.23
2022-12-16T04:04:08.093Z,76.11
2022-12-16T04:06:34.571Z,75.58
2022-12-16T04:09:01.027Z,75.53
2022-12-16T04:11:47.753Z,75.28
2022-12-16T04:14:32.754Z,75.26
2022-12-16T04:17:17.708Z,75.45
2022-12-16T04:20:03.455Z,75.67
2022-12-16T04:22:50.352Z,75.49
2022-12-16T04:25:17.642Z,75.48
2022-12-16T04:27:47.037Z,74.83
2022-12-16T04:30:20.467Z,75.52
2022-12-16T04:33:05.482Z,75.13
2022-12-16T04:35:50.614Z,75.36
2022-12-16T04:38:35.938Z,75.37
2022-12-16T04:41:21.206Z,74.90
2022-12-16T04:44:07.121Z,74.86
2022-12-16T04:46:52.607Z,74.84
2022-12-16T04:49:37.875Z,74.82
2022-12-16T04:52:23.098Z,74.51
2022-12-16T04:55:08.379Z,74.62
2022-12-16T04:57:53.700Z,74.68
2022-12-16T05:00:39.018Z,74.48
2022-12-16T05:03:24.260Z,74.33
2022-12-16T05:06:09.569Z,74.12
2022-12-16T05:08:54.889Z,74.20
2022-12-16T05:11:40.183Z,73.84
2022-12-16T05:14:25.351Z,74.15
2022-12-16T05:17:10.545Z,74.25
2022-12-16T05:19:55.799Z,74.54
2022-12-16T05:22:45.734Z,74.43
2022-12-16T05:25:30.624Z,74.31
2022-12-16T05:28:15.825Z,75.00
2022-12-16T05:31:01.115Z,74.80
2022-12-16T05:33:46.503Z,74.85
2022-12-16T05:36:31.883Z,74.68
2022-12-16T05:39:17.201Z,74.51
2022-12-16T05:42:02.370Z,74.48
2022-12-16T05:44:47.516Z,74.50
2022-12-16T05:47:32.570Z,74.91
2022-12-16T05:50:17.892Z,74.54
2022-12-16T05:53:09.894Z,74.40
2022-12-16T05:55:58.939Z,74.30
2022-12-16T05:58:44.094Z,74.18
2022-12-16T06:01:29.429Z,74.11
2022-12-16T06:04:17.782Z,73.89
2022-12-16T06:07:03.076Z,73.90
2022-12-16T06:09:53.194Z,74.06
2022-12-16T06:12:41.675Z,74.02
2022-12-16T06:15:26.890Z,74.35
2022-12-16T06:18:12.270Z,74.36
2022-12-16T06:20:57.357Z,73.81
2022-12-16T06:23:42.615Z,73.35
2022-12-16T06:26:27.613Z,73.44
2022-12-16T06:29:12.540Z,74.35
2022-12-16T06:31:57.951Z,74.15
2022-12-16T06:34:43.308Z,73.62
2022-12-16T06:37:28.249Z,73.53
2022-12-16T06:40:13.507Z,73.74
2022-12-16T06:42:59.296Z,73.48
2022-12-16T06:45:44.804Z,72.97
2022-12-16T06:48:30.024Z,72.76
2022-12-16T06:51:15.410Z,73.14
2022-12-16T06:54:00.667Z,73.52
2022-12-16T06:56:45.819Z,73.27
2022-12-16T06:59:31.226Z,73.88
2022-12-16T07:02:16.153Z,74.07
2022-12-16T07:05:01.479Z,74.17
2022-12-16T07:07:46.740Z,74.24
2022-12-16T07:10:31.889Z,73.95
2022-12-16T07:13:18.461Z,74.21
2022-12-16T07:16:04.198Z,74.18
2022-12-16T07:18:49.462Z,74.65
2022-12-16T07:21:34.652Z,74.28
2022-12-16T07:24:19.957Z,74.39
2022-12-16T07:27:04.902Z,73.64
2022-12-16T07:29:50.111Z,73.10
2022-12-16T07:32:36.027Z,73.02
2022-12-16T07:35:21.043Z,73.08
2022-12-16T07:38:06.480Z,73.57
2022-12-16T07:40:51.685Z,73.21
2022-12-16T07:43:37.040Z,72.84
2022-12-16T07:46:22.169Z,72.93
2022-12-16T07:49:07.416Z,72.50
2022-12-16T07:51:52.458Z,72.05
2022-12-16T07:54:37.853Z,72.26
2022-12-16T07:57:23.051Z,71.71
2022-12-16T08:00:08.131Z,71.39
2022-12-16T08:02:59.633Z,71.01
2022-12-16T08:05:44.686Z,71.36
2022-12-16T08:08:29.928Z,71.09
2022-12-16T08:11:14.990Z,71.28
2022-12-16T08:13:59.869Z,71.56
2022-12-16T08:16:45.204Z,70.85
2022-12-16T08:19:30.455Z,70.20
2022-12-16T08:22:15.503Z,69.83
2022-12-16T08:25:00.517Z,69.62
2022-12-16T08:27:45.559Z,69.80
2022-12-16T08:30:30.835Z,70.25
2022-12-16T08:33:30.751Z,69.34
2022-12-16T08:36:16.568Z,68.58
2022-12-16T08:39:01.533Z,69.27
2022-12-16T08:41:46.633Z,69.29
2022-12-16T08:44:32.012Z,69.09
2022-12-16T08:47:17.272Z,69.22
2022-12-16T08:50:02.885Z,69.42
2022-12-16T08:52:48.267Z,69.72
2022-12-16T08:55:33.526Z,69.34
2022-12-16T08:58:18.599Z,69.44
2022-12-16T09:01:07.574Z,68.49
2022-12-16T09:03:53.744Z,68.28
2022-12-16T09:06:40.825Z,68.53
2022-12-16T09:09:26.555Z,68.28
2022-12-16T09:12:11.738Z,68.10
2022-12-16T09:14:56.765Z,67.92
2022-12-16T09:17:42.022Z,68.13
2022-12-16T09:20:27.290Z,67.71
2022-12-16T09:23:12.323Z,67.48
2022-12-16T09:25:57.632Z,67.07
2022-12-16T09:28:42.912Z,66.68
2022-12-16T09:31:28.110Z,66.13
2022-12-16T09:34:13.421Z,66.45
2022-12-16T09:36:58.524Z,65.86
2022-12-16T09:39:43.919Z,65.47
2022-12-16T09:42:44.570Z,65.33
2022-12-16T09:45:52.699Z,64.72
2022-12-16T09:48:37.755Z,65.42
2022-12-16T09:51:23.706Z,64.86
2022-12-16T09:54:09.403Z,65.71
2022-12-16T09:56:55.370Z,65.07
2022-12-16T09:59:48.126Z,65.77
2022-12-16T10:02:34.781Z,65.74
2022-12-16T10:05:20.074Z,65.93
2022-12-16T10:08:06.269Z,65.60
2022-12-16T10:10:58.179Z,65.49
2022-12-16T10:13:43.533Z,65.11
2022-12-16T10:16:47.562Z,65.11
2022-12-16T10:19:32.670Z,65.36
2022-12-16T10:22:26.515Z,64.16
2022-12-16T10:25:11.738Z,64.50
2022-12-16T10:27:59.902Z,65.26
2022-12-16T10:30:45.770Z,63.54
2022-12-16T10:33:33.215Z,65.15
2022-12-16T10:36:18.667Z,65.01
2022-12-16T10:39:05.848Z,64.96
2022-12-16T10:41:51.735Z,64.29
2022-12-16T10:44:36.539Z,64.58
2022-12-16T10:47:21.907Z,64.65
2022-12-16T10:50:07.091Z,65.05
2022-12-16T10:52:52.417Z,64.56
2022-12-16T10:55:46.432Z,64.21
2022-12-16T10:58:37.414Z,64.37
2022-12-16T11:01:22.917Z,63.85
2022-12-16T11:04:08.682Z,63.19
2022-12-16T11:06:53.993Z,62.93
2022-12-16T11:09:40.247Z,63.52
2022-12-16T11:12:44.388Z,62.21
2022-12-16T11:15:41.827Z,61.60
2022-12-16T11:18:29.185Z,62.95
2022-12-16T11:21:33.926Z,63.82
2022-12-16T11:24:39.531Z,62.63
2022-12-16T11:27:34.851Z,62.86
2022-12-16T11:30:20.831Z,60.82
2022-12-16T11:33:13.171Z,61.77
2022-12-16T11:36:02.608Z,62.07
2022-12-16T11:38:49.327Z,61.26
2022-12-16T11:41:40.503Z,61.19
2022-12-16T11:44:26.635Z,61.89
2022-12-16T11:47:11.833Z,60.52
2022-12-16T11:49:57.032Z,60.95
2022-12-16T11:52:42.310Z,60.03
2022-12-16T11:56:03.676Z,61.88
2022-12-16T11:58:38.575Z,61.42
2022-12-16T12:01:31.403Z,60.08
2022-12-16T12:04:16.707Z,59.75
2022-12-16T12:07:44.247Z,60.50
2022-12-16T12:13:13.094Z,60.36
2022-12-16T12:16:09.638Z,60.52
2022-12-16T12:19:14.826Z,60.58
2022-12-16T12:21:59.578Z,60.11
2022-12-16T12:24:47.722Z,60.08
2022-12-16T12:27:36.131Z,60.49
2022-12-16T12:30:24.267Z,61.02
2022-12-16T12:33:28.398Z,61.08
2022-12-16T12:36:19.678Z,60.88
2022-12-16T12:39:23.665Z,61.91
2022-12-16T12:42:11.625Z,61.47
2022-12-16T12:44:56.846Z,61.61
2022-12-16T12:47:42.190Z,61.34
2022-12-16T12:50:39.490Z,62.49
2022-12-16T12:53:41.477Z,62.24
2022-12-16T12:56:45.426Z,62.41
2022-12-16T12:59:33.222Z,61.94
2022-12-16T13:02:18.981Z,61.77
2022-12-16T13:05:04.115Z,61.86
2022-12-16T13:07:50.706Z,61.59
2022-12-16T13:10:39.154Z,62.41
2022-12-16T13:13:34.087Z,62.11
2022-12-16T13:16:21.500Z,62.40
2022-12-16T13:19:09.541Z,62.02
2022-12-16T13:21:56.742Z,61.80
2022-12-16T13:24:45.441Z,63.11
2022-12-16T13:27:31.925Z,62.40
2022-12-16T13:30:31.350Z,62.63
2022-12-16T13:33:24.469Z,62.02
2022-12-16T13:36:12.557Z,62.72
2022-12-16T13:39:03.824Z,63.11
2022-12-16T13:41:49.183Z,61.83
2022-12-16T13:45:03.186Z,63.40
2022-12-16T13:47:58.662Z,63.07
2022-12-16T13:50:57.244Z,62.89
2022-12-16T13:53:48.842Z,63.02
2022-12-16T13:56:42.115Z,63.83
2022-12-16T13:59:37.576Z,63.05
2022-12-16T14:02:43.099Z,62.84
2022-12-16T14:05:57.245Z,62.88
2022-12-16T14:08:42.526Z,62.42
2022-12-16T14:11:37.541Z,63.53
2022-12-16T14:14:30.441Z,63.53
2022-12-16T14:17:17.101Z,63.94
2022-12-16T14:20:10.938Z,63.71
2022-12-16T14:23:05.990Z,63.91
2022-12-16T14:25:51.362Z,64.08
2022-12-16T14:28:39.870Z,64.15
2022-12-16T14:31:25.186Z,63.64
2022-12-16T14:34:13.677Z,63.86
2022-12-16T14:36:59.023Z,63.58
2022-12-16T14:39:48.000Z,64.21
2022-12-16T14:42:43.504Z,64.09
2022-12-16T14:45:55.032Z,63.33
2022-12-16T14:48:44.530Z,63.69
2022-12-16T14:51:34.175Z,64.09
2022-12-16T14:54:33.541Z,63.78
2022-12-16T14:57:18.978Z,64.31
2022-12-16T15:00:04.068Z,63.95
2022-12-16T15:02:50.086Z,63.79
2022-12-16T15:05:35.472Z,64.05
2022-12-16T15:08:20.631Z,64.95
2022-12-16T15:11:05.846Z,63.86
2022-12-16T15:13:51.078Z,64.45
2022-12-16T15:16:37.474Z,65.12
2022-12-16T15:19:22.764Z,65.45
2022-12-16T15:22:08.173Z,65.97
2022-12-16T15:24:55.397Z,65.64
2022-12-16T15:27:40.634Z,65.30
2022-12-16T15:30:44.759Z,65.51
2022-12-16T15:33:31.793Z,65.52
2022-12-16T15:36:19.747Z,65.34
2022-12-16T15:39:05.176Z,66.23
2022-12-16T15:41:54.662Z,66.49
2022-12-16T15:44:40.434Z,67.01
2022-12-16T15:47:35.442Z,66.95
2022-12-16T15:50:20.690Z,67.18
2022-12-16T15:53:06.013Z,66.88
2022-12-16T15:55:52.801Z,67.23
2022-12-16T15:58:54.464Z,67.37
2022-12-16T16:01:43.472Z,67.96
2022-12-16T16:04:39.729Z,67.88
2022-12-16T16:07:27.489Z,68.00
2022-12-16T16:10:12.879Z,67.79
2022-12-16T16:12:58.058Z,68.59
2022-12-16T16:15:43.369Z,68.32
2022-12-16T16:18:28.181Z,67.81
2022-12-16T16:21:13.378Z,67.71
2022-12-16T16:23:58.622Z,67.76
2022-12-16T16:26:45.468Z,67.84
2022-12-16T16:29:30.786Z,68.39
2022-12-16T16:32:15.740Z,68.16
2022-12-16T16:35:01.004Z,68.35
2022-12-16T16:37:46.177Z,68.10
2022-12-16T16:40:40.740Z,67.93
2022-12-16T16:43:27.482Z,67.94
2022-12-16T16:46:13.173Z,68.49
2022-12-16T16:48:58.543Z,68.55
2022-12-16T16:51:43.739Z,68.59
2022-12-16T16:54:29.045Z,68.71
2022-12-16T16:57:14.292Z,68.48
2022-12-16T16:59:59.458Z,67.99
2022-12-16T17:02:44.644Z,68.48
2022-12-16T17:05:29.705Z,69.14
2022-12-16T17:08:14.879Z,69.00
2022-12-16T17:11:00.263Z,69.18
2022-12-16T17:13:45.490Z,69.15
2022-12-16T17:16:31.036Z,69.44
2022-12-16T17:19:17.007Z,69.54
2022-12-16T17:22:02.121Z,69.28
2022-12-16T17:24:51.398Z,68.63
2022-12-16T17:27:39.557Z,68.77
2022-12-16T17:30:40.787Z,69.04
2022-12-16T17:33:30.318Z,68.26
2022-12-16T17:36:15.437Z,68.07
2022-12-16T17:39:01.376Z,67.68
2022-12-16T17:41:47.207Z,67.88
2022-12-16T17:44:32.559Z,68.54
2022-12-16T17:47:17.747Z,68.52
2022-12-16T17:50:03.058Z,68.83
2022-12-16T17:52:48.354Z,67.95
2022-12-16T17:55:33.579Z,68.89
2022-12-16T17:58:21.668Z,69.22
2022-12-16T18:01:06.944Z,69.59
2022-12-16T18:03:52.283Z,69.24
2022-12-16T18:06:38.594Z,69.46
2022-12-16T18:09:23.519Z,69.11
2022-12-16T18:12:08.843Z,68.90
2022-12-16T18:14:54.088Z,68.81
2022-12-16T18:17:39.386Z,69.23
2022-12-16T18:20:24.650Z,69.67
2022-12-16T18:23:12.974Z,69.78
2022-12-16T18:25:58.158Z,69.69
2022-12-16T18:28:43.357Z,69.76
2022-12-16T18:31:28.598Z,69.75
2022-12-16T18:34:13.921Z,68.97
2022-12-16T18:36:59.156Z,68.62
2022-12-16T18:39:44.444Z,68.75
2022-12-16T18:42:29.585Z,68.95
2022-12-16T18:45:14.796Z,69.08
2022-12-16T18:47:59.735Z,69.74
2022-12-16T18:50:45.011Z,69.97
2022-12-16T18:53:30.486Z,69.92
2022-12-16T18:56:19.359Z,70.21
2022-12-16T18:59:04.681Z,70.05
2022-12-16T19:01:49.839Z,70.14
2022-12-16T19:04:35.130Z,70.38
2022-12-16T19:07:20.333Z,70.09
2022-12-16T19:10:05.554Z,70.44
2022-12-16T19:12:50.898Z,70.56
2022-12-16T19:15:40.980Z,70.79
2022-12-16T19:18:26.470Z,70.68
2022-12-16T19:21:13.694Z,70.75
2022-12-16T19:24:01.913Z,70.83
2022-12-16T19:26:47.231Z,71.54
2022-12-16T19:29:32.505Z,71.16
2022-12-16T19:32:17.648Z,70.78
2022-12-16T19:35:03.182Z,71.24
2022-12-16T19:37:48.383Z,71.72
2022-12-16T19:40:33.794Z,71.82
2022-12-16T19:43:19.032Z,71.33
2022-12-16T19:46:10.050Z,71.43
2022-12-16T19:48:56.168Z,70.86
2022-12-16T19:51:41.230Z,70.97
2022-12-16T19:54:26.500Z,71.03
2022-12-16T19:57:11.718Z,71.38
2022-12-16T19:59:56.592Z,71.14
2022-12-16T20:02:41.988Z,70.93
2022-12-16T20:05:27.348Z,70.78
2022-12-16T20:08:12.220Z,71.42
2022-12-16T20:10:57.639Z,71.10
2022-12-16T20:13:43.066Z,70.90
2022-12-16T20:16:29.328Z,70.85
2022-12-16T20:19:14.559Z,70.95
2022-12-16T20:25:05.008Z,70.85
2022-12-16T20:27:50.366Z,71.13
2022-12-16T20:30:35.591Z,71.26
2022-12-16T20:33:20.778Z,70.93
2022-12-16T20:36:16.362Z,71.42
2022-12-16T20:39:01.526Z,70.99
2022-12-16T20:41:48.512Z,71.06
2022-12-16T20:44:33.582Z,70.86
2022-12-16T20:47:18.659Z,70.90
2022-12-16T20:50:03.661Z,71.15
2022-12-16T20:52:48.891Z,70.96
2022-12-16T20:55:34.127Z,70.12
2022-12-16T20:58:19.353Z,69.86
2022-12-16T21:01:04.700Z,70.41
2022-12-16T21:03:49.812Z,70.62
2022-12-16T21:06:34.731Z,70.84
2022-12-16T21:09:19.990Z,70.33
2022-12-16T21:12:05.321Z,70.59
2022-12-16T21:14:51.598Z,70.21
2022-12-16T21:17:36.921Z,70.28
2022-12-16T21:20:22.954Z,70.18
2022-12-16T21:23:08.202Z,70.59
2022-12-16T21:25:53.550Z,70.48
2022-12-16T21:28:45.837Z,70.77
2022-12-16T21:31:30.771Z,70.73
2022-12-16T21:34:16.109Z,70.88
2022-12-16T21:37:01.358Z,70.95
2022-12-16T21:39:46.582Z,70.88
2022-12-16T21:42:35.998Z,70.82
2022-12-16T21:45:22.836Z,70.91
2022-12-16T21:48:11.292Z,71.47
2022-12-16T21:50:56.547Z,71.90
2022-12-16T21:53:53.576Z,71.96
2022-12-16T21:56:38.646Z,71.91
2022-12-16T21:59:24.035Z,72.41
2022-12-16T22:02:09.064Z,72.49
2022-12-16T22:04:54.730Z,72.83
2022-12-16T22:07:42.277Z,72.69
2022-12-16T22:10:27.731Z,72.49
2022-12-16T22:13:17.545Z,72.79
2022-12-16T22:16:02.942Z,72.93
2022-12-16T22:18:48.467Z,72.93
2022-12-16T22:21:33.922Z,72.28
2022-12-16T22:24:19.128Z,72.20
2022-12-16T22:27:04.602Z,72.30
2022-12-16T22:29:51.452Z,72.53
2022-12-16T22:32:36.603Z,72.62
2022-12-16T22:35:22.028Z,72.66
2022-12-16T22:38:07.313Z,72.95
2022-12-16T22:40:52.658Z,72.88
2022-12-16T22:43:49.211Z,72.74
2022-12-16T22:46:34.476Z,72.84
2022-12-16T22:49:19.620Z,72.87
2022-12-16T22:52:05.052Z,72.89
2022-12-16T22:54:50.042Z,73.07
2022-12-16T22:57:35.418Z,72.98
2022-12-16T23:00:20.715Z,72.96
2022-12-16T23:03:05.900Z,72.82
2022-12-16T23:05:51.233Z,73.13
2022-12-16T23:08:38.588Z,73.27
2022-12-16T23:11:23.738Z,73.16
2022-12-16T23:14:09.197Z,73.16
2022-12-16T23:16:54.794Z,72.93
2022-12-16T23:19:41.531Z,72.89
2022-12-16T23:22:26.757Z,72.50
2022-12-16T23:25:12.031Z,72.32
2022-12-16T23:27:57.607Z,72.63
2022-12-16T23:30:42.836Z,71.81
2022-12-16T23:33:28.188Z,71.82
2022-12-16T23:36:13.444Z,71.81
2022-12-16T23:38:58.753Z,71.96
2022-12-16T23:41:44.075Z,72.37
2022-12-16T23:44:29.292Z,72.18
2022-12-16T23:47:14.347Z,73.14
2022-12-16T23:49:59.433Z,73.22
2022-12-16T23:52:44.390Z,73.58
2022-12-16T23:55:29.643Z,73.42
2022-12-16T23:58:20.985Z,73.47
